Nearby METAR Reports

 

KBMG - Bloomington, Indiana, USA
Distance from station: SSE 11mi, 18km
Updated: Wed, 08-Apr-2020 4:53pm EDT
Clear
Clear
 Wind from WSW
Wind: WSW 10 mph , 17 km/h, Gust: 16 mph , 26 km/h
Temperature: 82°F , 28°C
Dew Point: 46°F , 8°C
Humidity: 28%
Barometer: 29.65 inHg , 1004.1 hPa
Clouds: Clear
Visibility: 10 miles , 16 km
2020/04/08 20:53 KBMG 082053Z 24009G14KT 10SM CLR 28/08 A2965 RMK AO2 SLP031 T02780083 58029
KGPC - Greencastle, Indiana, USA
Distance from station: NNW 24mi, 39km
Updated: Wed, 08-Apr-2020 4:55pm EDT
Clear
Clear
 Wind from SSW
Wind: SSW 10 mph , 17 km/h
Temperature: 81°F , 27°C
Dew Point: 46°F , 8°C
Humidity: 30%
Barometer: 29.64 inHg , 1003.7 hPa
Clouds: Clear
Visibility: 10 miles , 16 km
2020/04/08 20:55 KGPC 082055Z AUTO 21009KT 10SM CLR 27/08 A2964 RMK AO2 T02680084
 
KHUF - Terre Haute, Indiana, USA
Distance from station: WNW 34mi, 54km
Updated: Wed, 08-Apr-2020 4:53pm EDT
Clear
Clear
 Wind from SSW
Wind: SSW 8 mph , 13 km/h, Gust: 21 mph , 33 km/h
Temperature: 81°F , 27°C
Dew Point: 54°F , 12°C
Humidity: 39%
Barometer: 29.63 inHg , 1003.4 hPa
Clouds: Clear
Visibility: 10 miles , 16 km
2020/04/08 20:53 KHUF 082053Z 21007G18KT 10SM CLR 27/12 A2963 RMK AO2 SLP030 T02720117 58033
KIND - Indianapolis, Indiana, USA
Distance from station: NE 36mi, 58km
Updated: Wed, 08-Apr-2020 4:54pm EDT
Few Clouds
Few Clouds
 Wind from SSW
Wind: SSW 7 mph , 11 km/h
Temperature: 79°F , 26°C
Dew Point: 46°F , 8°C
Humidity: 32%
Barometer: 29.64 inHg , 1003.7 hPa
Clouds: Few Clouds
Visibility: 10 miles , 16 km
Cloud details: Few Clouds 5000 ft
2020/04/08 20:54 KIND 082054Z 21006KT 10SM FEW050 26/08 A2964 RMK AO2 SLP031 T02560083 58031
 
KHFY - Indianapolis, Indiana, USA
Distance from station: NE 40mi, 65km
Updated: Wed, 08-Apr-2020 4:55pm EDT
Clear
Clear
 Wind from S
Wind: S 3 mph , 6 km/h
Temperature: 77°F , 25°C
Dew Point: 48°F , 9°C
Humidity: 36%
Barometer: 29.65 inHg , 1004.1 hPa
Clouds: Clear
Visibility: 10 miles , 16 km
2020/04/08 20:55 KHFY 082055Z AUTO 18003KT 10SM CLR 25/09 A2965 RMK AO2 T02540092
KBAK - Columbus/Balkala, Indiana, USA
Distance from station: E 43mi, 69km
Updated: Wed, 08-Apr-2020 4:45pm EDT
Clear
Clear
 Wind from SSE
Wind: SSE 5 mph , 7 km/h
Temperature: 81°F , 27°C
Dew Point: 48°F , 9°C
Humidity: 32%
Barometer: 29.66 inHg , 1004.4 hPa
Clouds: Clear
Visibility: 10 miles , 16 km
2020/04/08 20:45 KBAK 082045Z 15004KT 10SM SKC 27/09 A2966
 
KEYE - Indianapolis, Indiana, USA
Distance from station: NNE 43mi, 69km
Updated: Wed, 08-Apr-2020 4:53pm EDT
Clear
Clear
 Wind from S
Wind: S 7 mph , 11 km/h
Temperature: 79°F , 26°C
Dew Point: 45°F , 7°C
Humidity: 30%
Barometer: 29.64 inHg , 1003.7 hPa
Clouds: Clear
Visibility: 10 miles , 16 km
2020/04/08 20:53 KEYE 082053Z AUTO 19006KT 10SM CLR 26/07 A2964 RMK AO2 SLP030 T02560067 58030
KDCY - Daviess County, Indiana, USA
Distance from station: SSW 47mi, 76km
Updated: Wed, 08-Apr-2020 4:55pm EDT
Clear
Clear
 Wind from WSW
Wind: WSW 8 mph , 13 km/h
Temperature: 82°F , 28°C
Heat Index: 82°F , 28°C
Dew Point: 57°F , 14°C
Humidity: 42%
Barometer: 29.65 inHg , 1004.1 hPa
Clouds: Clear
Visibility: 10 miles , 16 km
2020/04/08 20:55 KDCY 082055Z AUTO 25007KT 10SM CLR 28/14 A2965 RMK AO2 LTG DSNT N T02840136
 
KCFJ - Crawfordsville, Indiana, USA
Distance from station: NNW 49mi, 78km
Updated: Wed, 08-Apr-2020 4:55pm EDT
Clear
Clear
 Wind from SSW
Wind: SSW 8 mph , 13 km/h
Temperature: 77°F , 25°C
Dew Point: 45°F , 7°C
Humidity: 32%
Barometer: 29.64 inHg , 1003.7 hPa
Clouds: Clear
Visibility: 10 miles , 16 km
2020/04/08 20:55 KCFJ 082055Z AUTO 21007KT 10SM CLR 25/07 A2964 RMK AO2 T02540066